Time;durP1;ratioP1;P1;durP2;ratioP2;P2;SDS_P1;SDS_P2;PMS_P1;PMS_P2;Temp;Humidity;BMP_temperature;BMP_pressure;BME280_temperature;BME280_humidity;BME280_pressure;Samples;Min_cycle;Max_cycle;Signal;HPM_P1;HPM_P2
2022/06/23 00:01:31;;;;;;;3.67;2.80;;;17.80;67.20;;;;;;2317444;58;21044;-72
2022/06/23 00:03:58;;;;;;;;;;;17.80;67.10;;;;;;2320939;58;21605;-72
2022/06/23 00:06:38;;;;;;;3.47;2.70;;;17.90;66.90;;;;;;2557845;54;20130;-75
2022/06/23 00:12:38;;;;;;;5.22;3.10;;;17.70;66.90;;;;;;2356120;57;22730;-74
2022/06/23 00:15:24;;;;;;;3.90;3.20;;;17.70;66.80;;;;;;2346958;57;21128;-72
2022/06/23 00:18:01;;;;;;;4.03;3.28;;;17.60;66.60;;;;;;2346575;57;21066;-73
2022/06/23 00:20:32;;;;;;;4.25;3.85;;;17.50;66.60;;;;;;2372265;56;21588;-72
2022/06/23 00:23:11;;;;;;;4.07;3.20;;;17.50;66.80;;;;;;2374794;56;21051;-73
2022/06/23 00:25:46;;;;;;;4.15;3.03;;;17.40;66.90;;;;;;2374786;56;21074;-72
2022/06/23 00:28:21;;;;;;;6.03;3.58;;;17.40;66.90;;;;;;2374602;56;22147;-71
2022/06/23 00:30:53;;;;;;;3.87;3.20;;;17.40;67.20;;;;;;2375082;56;21047;-72
2022/06/23 00:33:23;;;;;;;6.82;4.60;;;17.30;67.40;;;;;;2374974;56;21035;-72
2022/06/23 00:35:52;;;;;;;6.68;5.07;;;17.30;67.60;;;;;;2374778;56;21067;-72
2022/06/23 00:38:24;;;;;;;5.72;4.62;;;17.30;67.80;;;;;;2374547;56;21113;-72
2022/06/23 00:40:53;;;;;;;7.28;5.20;;;17.20;67.70;;;;;;2628478;52;21031;-72
2022/06/23 00:43:22;;;;;;;5.57;4.18;;;17.20;68.40;;;;;;2374974;56;21031;-73
2022/06/23 00:45:54;;;;;;;5.37;4.80;;;17.20;67.70;;;;;;2374742;56;21114;-72
2022/06/23 00:48:27;;;;;;;3.42;3.12;;;17.20;67.80;;;;;;2375022;56;21751;-72
2022/06/23 00:51:04;;;;;;;3.83;3.40;;;17.20;67.70;;;;;;2374630;56;21055;-74
2022/06/23 00:53:37;;;;;;;3.80;3.12;;;17.10;67.60;;;;;;2375166;56;21046;-72
2022/06/23 00:56:16;;;;;;;3.55;3.10;;;17.10;67.60;;;;;;2374953;56;21588;-71
2022/06/23 00:58:51;;;;;;;4.12;3.70;;;17.10;67.60;;;;;;2374858;56;21529;-71
2022/06/23 01:01:27;;;;;;;5.70;3.92;;;17.00;67.70;;;;;;2375104;56;21087;-71
2022/06/23 01:04:00;;;;;;;4.68;3.70;;;17.00;67.70;;;;;;2375231;56;21597;-71
2022/06/23 01:06:36;;;;;;;4.97;2.90;;;17.00;67.70;;;;;;2375546;56;21102;-72
2022/06/23 01:09:14;;;;;;;4.32;3.22;;;16.90;67.50;;;;;;2372467;56;21494;-72
2022/06/23 01:11:46;;;;;;;4.55;3.58;;;16.90;67.40;;;;;;2373879;56;21082;-72
2022/06/23 01:14:24;;;;;;;3.42;3.12;;;16.90;67.40;;;;;;2374999;56;21027;-71
2022/06/23 01:16:55;;;;;;;5.72;4.30;;;16.90;67.50;;;;;;2375225;56;21552;-72
2022/06/23 01:19:51;;;;;;;4.50;3.30;;;16.80;67.50;;;;;;2375543;56;21632;-73
2022/06/23 01:22:33;;;;;;;7.60;3.97;;;16.80;67.80;;;;;;2374404;56;21133;-73
2022/06/23 01:28:01;;;;;;;6.15;4.30;;;16.70;67.80;;;;;;2355909;57;22054;-72
2022/06/23 01:30:33;;;;;;;5.35;4.03;;;16.70;67.90;;;;;;2625430;52;21102;-72
2022/06/23 01:35:47;;;;;;;5.20;4.30;;;16.70;68.90;;;;;;2355654;57;22117;-73
2022/06/23 01:38:22;;;;;;;5.82;3.50;;;16.60;68.00;;;;;;2348022;57;21065;-72
2022/06/23 01:40:55;;;;;;;3.92;3.17;;;16.60;68.00;;;;;;2319912;58;21572;-72
2022/06/23 01:43:29;;;;;;;3.78;3.15;;;16.70;68.10;;;;;;2321132;58;21043;-73
2022/06/23 01:46:02;;;;;;;4.70;3.35;;;16.60;67.90;;;;;;2319324;58;21546;-72
2022/06/23 01:48:53;;;;;;;8.38;5.60;;;16.60;67.90;;;;;;2320970;58;21537;-72
2022/06/23 01:51:24;;;;;;;8.18;4.70;;;16.60;69.00;;;;;;2320762;58;21123;-72
2022/06/23 01:53:54;;;;;;;3.47;2.83;;;16.50;68.40;;;;;;2320740;58;21597;-72
2022/06/23 01:56:35;;;;;;;2.90;2.58;;;16.50;68.70;;;;;;2319623;58;21534;-72
2022/06/23 01:59:21;;;;;;;2.60;2.20;;;16.40;68.60;;;;;;2320447;58;21083;-71
2022/06/23 02:01:53;;;;;;;3.45;2.75;;;16.40;68.60;;;;;;2320792;58;21142;-72
2022/06/23 02:04:27;;;;;;;3.43;2.73;;;16.30;68.60;;;;;;2320973;58;21131;-72
2022/06/23 02:06:59;;;;;;;4.28;3.78;;;16.30;68.70;;;;;;2320309;58;21063;-72
2022/06/23 02:09:33;;;;;;;7.03;4.40;;;16.30;68.70;;;;;;2320592;58;21638;-72
2022/06/23 02:12:00;;;;;;;5.30;4.12;;;16.20;68.70;;;;;;2320019;58;21135;-72
2022/06/23 02:14:50;;;;;;;6.40;4.18;;;16.20;68.70;;;;;;2320553;58;21471;-71
2022/06/23 02:17:33;;;;;;;5.62;4.25;;;16.10;69.00;;;;;;2320000;58;21059;-72
2022/06/23 02:20:16;;;;;;;7.82;4.78;;;16.10;68.80;;;;;;2320657;58;21551;-74
2022/06/23 02:22:46;;;;;;;7.20;4.90;;;16.10;68.90;;;;;;2319910;58;21055;-72
2022/06/23 02:25:18;;;;;;;6.70;4.95;;;16.10;68.90;;;;;;2320291;58;21127;-72
2022/06/23 02:27:49;;;;;;;6.53;5.27;;;16.10;69.00;;;;;;2320948;58;21055;-72
2022/06/23 02:30:20;;;;;;;6.70;4.60;;;16.00;69.20;;;;;;2320515;58;21048;-72
2022/06/23 02:33:02;;;;;;;5.53;4.57;;;16.00;69.30;;;;;;2320388;58;21103;-72
2022/06/23 02:35:34;;;;;;;4.95;3.90;;;15.90;69.40;;;;;;2320276;58;21563;-73
2022/06/23 02:38:08;;;;;;;7.00;4.93;;;15.90;69.30;;;;;;2320386;58;21550;-72
2022/06/23 02:40:38;;;;;;;;;;;15.90;69.40;;;;;;2324214;58;21052;-72
2022/06/23 02:43:19;;;;;;;5.55;4.72;;;16.00;69.20;;;;;;2319311;58;20362;-72
2022/06/23 02:46:17;;;;;;;7.28;5.72;;;15.90;68.90;;;;;;2319925;58;21559;-72
2022/06/23 02:52:02;;;;;;;6.03;5.18;;;15.90;69.30;;;;;;2356355;57;22125;-72
2022/06/23 02:54:55;;;;;;;6.75;4.40;;;15.80;69.10;;;;;;2346988;57;21061;-72
2022/06/23 02:57:32;;;;;;;5.72;4.18;;;15.90;69.40;;;;;;2348185;57;21077;-72
2022/06/23 03:00:06;;;;;;;4.97;4.47;;;15.80;69.30;;;;;;2365969;56;21119;-73
2022/06/23 03:02:38;;;;;;;5.70;5.10;;;15.80;69.50;;;;;;2374807;56;21114;-73
2022/06/23 03:05:16;;;;;;;4.72;4.05;;;15.80;70.50;;;;;;2374889;56;22150;-71
2022/06/23 03:07:50;;;;;;;3.83;3.53;;;15.80;69.60;;;;;;2375040;56;21055;-72
2022/06/23 03:10:24;;;;;;;3.40;3.10;;;15.80;69.50;;;;;;2374675;56;21055;-72
2022/06/23 03:12:57;;;;;;;4.07;3.70;;;15.80;69.60;;;;;;2374790;56;21019;-73
2022/06/23 03:15:29;;;;;;;3.45;2.72;;;15.70;69.50;;;;;;2374444;56;21110;-72
2022/06/23 03:18:02;;;;;;;6.72;4.40;;;15.70;69.50;;;;;;2375205;56;21541;-73
2022/06/23 03:20:38;;;;;;;3.87;3.53;;;15.70;69.50;;;;;;2375302;56;21063;-73
2022/06/23 03:23:15;;;;;;;4.20;3.80;;;15.70;69.50;;;;;;2375302;56;21090;-73
2022/06/23 03:25:47;;;;;;;5.50;3.62;;;15.70;69.60;;;;;;2374992;56;21613;-73
2022/06/23 03:28:20;;;;;;;3.45;3.15;;;15.70;69.70;;;;;;2375143;56;21129;-73
2022/06/23 03:30:53;;;;;;;3.53;3.22;;;15.70;69.80;;;;;;2374844;56;21111;-72
2022/06/23 03:33:27;;;;;;;3.83;3.50;;;15.80;69.90;;;;;;2375093;56;21062;-73
2022/06/23 03:36:00;;;;;;;3.40;2.92;;;15.80;69.80;;;;;;2374994;56;21098;-73
2022/06/23 03:41:38;;;;;;;3.85;3.08;;;15.70;69.80;;;;;;2409339;52;21315;-73
2022/06/23 03:44:14;;;;;;;3.62;3.25;;;15.70;69.80;;;;;;2374483;56;21117;-73
2022/06/23 03:46:48;;;;;;;3.58;3.28;;;15.70;69.90;;;;;;2374277;56;21055;-72
2022/06/23 03:49:19;;;;;;;4.40;4.00;;;15.70;70.10;;;;;;2375330;56;21118;-73
2022/06/23 03:51:55;;;;;;;4.57;3.28;;;15.70;70.10;;;;;;2374611;56;21900;-73
2022/06/23 03:54:25;;;;;;;4.50;3.95;;;15.70;70.20;;;;;;2374442;56;21047;-72
2022/06/23 03:56:56;;;;;;;4.80;3.92;;;15.70;70.20;;;;;;2374700;56;21537;-73
2022/06/23 03:59:31;;;;;;;5.28;4.25;;;15.70;70.40;;;;;;2375034;56;21149;-73
2022/06/23 04:02:04;;;;;;;5.60;5.05;;;15.70;70.80;;;;;;2433943;54;21058;-75
2022/06/23 04:04:47;;;;;;;4.47;4.03;;;15.70;70.80;;;;;;2302861;58;21170;-77
2022/06/23 04:10:15;;;;;;;5.80;4.28;;;15.70;71.10;;;;;;2522645;53;22127;-75
2022/06/23 04:12:49;;;;;;;5.95;4.50;;;15.70;71.10;;;;;;2414872;53;21038;-76
2022/06/23 04:15:23;;;;;;;8.00;4.80;;;15.70;71.10;;;;;;2346992;57;21129;-77
2022/06/23 04:17:55;;;;;;;5.37;4.18;;;15.70;71.20;;;;;;2346563;57;21520;-76
2022/06/23 04:20:30;;;;;;;5.45;4.80;;;15.80;71.40;;;;;;2347264;57;21595;-77
2022/06/23 04:23:01;;;;;;;5.55;3.62;;;15.80;71.60;;;;;;2437358;53;21330;-76
2022/06/23 04:25:41;;;;;;;4.62;3.90;;;15.80;71.70;;;;;;2366763;53;21049;-77
2022/06/23 04:28:20;;;;;;;4.50;3.78;;;15.90;72.00;;;;;;2347903;57;21065;-76
2022/06/23 04:30:48;;;;;;;6.70;4.93;;;15.90;72.10;;;;;;2347566;57;21041;-77
2022/06/23 04:33:20;;;;;;;4.32;3.92;;;15.90;72.20;;;;;;2347778;57;21064;-76
2022/06/23 04:35:50;;;;;;;3.70;3.17;;;16.00;72.50;;;;;;2345227;57;21033;-76
2022/06/23 04:38:27;;;;;;;16.40;6.32;;;16.00;72.80;;;;;;2345323;57;21592;-76
2022/06/23 04:41:01;;;;;;;8.23;5.47;;;16.10;73.20;;;;;;2346133;57;21045;-76
2022/06/23 04:43:37;;;;;;;6.80;4.60;;;16.10;73.70;;;;;;2368959;53;21053;-76
2022/06/23 04:46:10;;;;;;;7.45;5.00;;;16.20;73.80;;;;;;2382999;53;21105;-76
2022/06/23 04:48:52;;;;;;;9.90;5.32;;;16.20;74.00;;;;;;2346223;57;21681;-76
2022/06/23 04:51:27;;;;;;;6.37;4.80;;;16.30;74.20;;;;;;2348322;53;21030;-76
2022/06/23 04:54:03;;;;;;;7.05;5.22;;;16.30;74.40;;;;;;2360779;53;21595;-76
2022/06/23 04:56:36;;;;;;;6.05;4.78;;;16.40;74.70;;;;;;2346302;57;21113;-76
2022/06/23 04:59:16;;;;;;;8.75;5.90;;;16.50;74.90;;;;;;2347555;57;21512;-76
2022/06/23 05:01:47;;;;;;;9.10;5.60;;;16.50;75.30;;;;;;2347298;57;21034;-76
2022/06/23 05:04:20;;;;;;;6.32;4.80;;;16.60;75.70;;;;;;2347573;57;21155;-77
2022/06/23 05:06:50;;;;;;;9.52;5.15;;;16.60;76.00;;;;;;2346999;57;21122;-76
2022/06/23 05:09:26;;;;;;;7.03;5.43;;;16.70;76.10;;;;;;2346680;57;21592;-77
2022/06/23 05:11:56;;;;;;;9.60;5.25;;;16.70;76.40;;;;;;2364701;53;21053;-77
2022/06/23 05:14:31;;;;;;;8.00;5.00;;;16.80;76.60;;;;;;2354354;53;21058;-79
2022/06/23 05:17:10;;;;;;;6.25;5.18;;;16.90;76.60;;;;;;2346205;57;21614;-76
2022/06/23 05:19:39;;;;;;;5.45;4.75;;;16.90;77.00;;;;;;2345642;57;21638;-76
2022/06/23 05:22:17;;;;;;;9.10;4.45;;;17.00;77.30;;;;;;2345684;57;21093;-76
2022/06/23 05:24:46;;;;;;;6.12;4.95;;;17.10;77.60;;;;;;2346475;57;21134;-76
2022/06/23 05:27:21;;;;;;;7.12;4.68;;;17.10;77.50;;;;;;2395964;53;21046;-77
2022/06/23 05:29:53;;;;;;;8.38;4.75;;;17.10;77.70;;;;;;2345743;57;21583;-76
2022/06/23 05:32:26;;;;;;;8.43;5.30;;;17.20;78.10;;;;;;2345859;57;21152;-76
2022/06/23 05:35:02;;;;;;;8.70;5.20;;;17.20;78.10;;;;;;2346435;56;21109;-76
2022/06/23 05:37:33;;;;;;;5.62;4.40;;;17.30;78.10;;;;;;2345670;57;21563;-76
2022/06/23 05:40:23;;;;;;;6.40;4.32;;;17.40;78.90;;;;;;2345827;57;21107;-76
2022/06/23 05:42:54;;;;;;;7.72;4.87;;;17.40;78.30;;;;;;2345810;57;21057;-76
2022/06/23 05:45:25;;;;;;;11.88;5.57;;;17.40;78.30;;;;;;2345727;57;21049;-76
2022/06/23 05:47:54;;;;;;;4.82;4.15;;;17.50;79.00;;;;;;2346410;57;21644;-76
2022/06/23 05:50:26;;;;;;;6.53;4.05;;;17.50;78.30;;;;;;2346090;57;21057;-77
2022/06/23 05:53:00;;;;;;;7.68;4.32;;;17.60;78.20;;;;;;2346260;57;21535;-76
2022/06/23 05:55:36;;;;;;;5.62;4.22;;;17.60;78.00;;;;;;2346035;57;21100;-76
2022/06/23 05:58:14;;;;;;;4.57;3.55;;;17.70;78.20;;;;;;2346503;57;21102;-76
2022/06/23 06:00:47;;;;;;;8.38;3.65;;;17.80;78.10;;;;;;2346072;57;21487;-76
2022/06/23 06:03:22;;;;;;;5.10;3.40;;;17.80;77.90;;;;;;2353770;53;21133;-76
2022/06/23 06:05:53;;;;;;;4.70;2.80;;;17.90;77.60;;;;;;2345901;57;21587;-76
2022/06/23 06:08:26;;;;;;;7.55;3.17;;;17.90;78.00;;;;;;2345482;57;21532;-76
2022/06/23 06:10:54;;;;;;;4.18;3.12;;;18.00;77.00;;;;;;2353898;53;21057;-76
2022/06/23 06:13:26;;;;;;;6.10;3.33;;;18.00;76.70;;;;;;2346235;57;21070;-76
2022/06/23 06:15:56;;;;;;;4.87;3.35;;;18.10;76.50;;;;;;2410808;53;21124;-76
2022/06/23 06:18:28;;;;;;;3.95;3.35;;;18.20;76.30;;;;;;2346206;57;21592;-76
2022/06/23 06:20:58;;;;;;;4.00;3.58;;;18.20;76.10;;;;;;2424001;53;21320;-76
2022/06/23 06:26:11;;;;;;;7.28;3.55;;;18.20;75.60;;;;;;2505552;53;22117;-74
2022/06/23 06:28:39;;;;;;;8.50;3.85;;;18.30;75.50;;;;;;2350952;56;21133;-74
2022/06/23 06:31:13;;;;;;;6.22;3.65;;;18.30;75.40;;;;;;2374463;56;21043;-76
2022/06/23 06:33:53;;;;;;;4.97;2.83;;;18.30;75.40;;;;;;2374619;56;21110;-76
2022/06/23 06:36:31;;;;;;;7.62;3.97;;;18.40;75.30;;;;;;2523414;52;21377;-76
2022/06/23 06:39:05;;;;;;;7.18;3.55;;;18.50;75.10;;;;;;2372877;56;21514;-75
2022/06/23 06:41:32;;;;;;;;;;;18.50;74.80;;;;;;2376242;56;21112;-76
2022/06/23 06:44:00;;;;;;;3.80;3.40;;;18.60;74.70;;;;;;2371832;56;20380;-75
2022/06/23 06:46:28;;;;;;;5.68;3.70;;;18.60;74.10;;;;;;2372572;56;21548;-75
2022/06/23 06:48:57;;;;;;;5.87;3.75;;;18.60;74.00;;;;;;2372077;56;21127;-75
2022/06/23 06:51:29;;;;;;;6.80;3.95;;;18.60;74.20;;;;;;2375238;56;21106;-75
2022/06/23 06:54:01;;;;;;;6.43;3.65;;;18.60;74.10;;;;;;2374836;52;21043;-76
2022/06/23 06:56:39;;;;;;;4.60;2.70;;;18.70;74.10;;;;;;2373554;52;21063;-75
2022/06/23 06:59:15;;;;;;;4.87;3.20;;;18.70;74.00;;;;;;2377649;52;21047;-75
2022/06/23 07:01:47;;;;;;;7.28;4.05;;;18.80;73.90;;;;;;2374349;56;21055;-75
2022/06/23 07:04:20;;;;;;;7.60;3.67;;;18.80;73.90;;;;;;2374851;56;21198;-77
2022/06/23 07:06:53;;;;;;;4.60;3.70;;;18.90;73.80;;;;;;2374516;56;21325;-75
2022/06/23 07:09:30;;;;;;;4.82;3.47;;;18.90;73.40;;;;;;2372449;56;21134;-75
2022/06/23 07:12:04;;;;;;;6.05;3.40;;;19.00;73.30;;;;;;2372804;56;21105;-75
2022/06/23 07:14:40;;;;;;;9.50;3.83;;;19.00;73.40;;;;;;2373518;56;21526;-75
2022/06/23 07:17:16;;;;;;;7.30;3.53;;;19.10;73.50;;;;;;2372886;56;21059;-75
2022/06/23 07:19:49;;;;;;;9.07;3.47;;;19.10;73.50;;;;;;2372657;54;21589;-75
2022/06/23 07:22:21;;;;;;;3.80;3.20;;;19.20;73.30;;;;;;2372624;56;21522;-77
2022/06/23 07:24:54;;;;;;;6.25;3.65;;;19.20;73.10;;;;;;2411175;52;21325;-77
2022/06/23 07:27:29;;;;;;;6.22;3.55;;;19.30;73.10;;;;;;2372971;56;21114;-76
2022/06/23 07:30:00;;;;;;;5.10;3.35;;;19.30;72.80;;;;;;2617680;52;21027;-76
2022/06/23 07:32:38;;;;;;;5.68;3.50;;;19.40;72.70;;;;;;2374696;56;21633;-76
2022/06/23 07:35:18;;;;;;;4.75;3.45;;;19.40;72.70;;;;;;2374647;56;21039;-75
2022/06/23 07:37:57;;;;;;;4.78;3.37;;;19.50;72.70;;;;;;2530810;52;21094;-75
2022/06/23 07:40:27;;;;;;;5.68;3.33;;;19.50;71.60;;;;;;2371731;56;21059;-77
2022/06/23 07:43:02;;;;;;;5.45;3.20;;;19.60;71.00;;;;;;2372366;56;21062;-77
2022/06/23 07:45:34;;;;;;;7.50;3.42;;;19.70;70.80;;;;;;2471954;52;21626;-76
2022/06/23 07:48:02;;;;;;;5.62;3.33;;;19.70;70.70;;;;;;2371671;56;21178;-76
2022/06/23 07:50:30;;;;;;;4.50;3.15;;;19.80;69.60;;;;;;2370981;56;21050;-76
2022/06/23 07:52:59;;;;;;;3.65;3.22;;;19.80;69.60;;;;;;2370097;56;21097;-76
2022/06/23 07:55:31;;;;;;;3.92;2.85;;;19.80;69.40;;;;;;2370515;56;21039;-75
2022/06/23 07:58:00;;;;;;;4.15;2.90;;;19.80;69.90;;;;;;2444876;52;21106;-76
2022/06/23 08:00:29;;;;;;;4.97;2.97;;;19.90;68.80;;;;;;2405329;52;21035;-75
2022/06/23 08:03:03;;;;;;;4.95;2.67;;;20.00;69.20;;;;;;2370368;56;21047;-75
2022/06/23 08:05:37;;;;;;;7.72;3.15;;;20.00;69.00;;;;;;2370683;54;21046;-76
2022/06/23 08:08:05;;;;;;;6.80;3.05;;;20.00;68.50;;;;;;2371742;56;21102;-75
2022/06/23 08:10:34;;;;;;;4.60;2.95;;;20.10;67.60;;;;;;2370710;56;21102;-75
2022/06/23 08:13:06;;;;;;;6.03;3.12;;;20.10;66.80;;;;;;2372340;56;21064;-75
2022/06/23 08:18:35;;;;;;;3.10;2.60;;;20.20;68.60;;;;;;2373735;52;21039;-76
2022/06/23 08:21:09;;;;;;;3.42;3.00;;;20.20;68.10;;;;;;2372711;56;21051;-76
2022/06/23 08:23:44;;;;;;;7.35;2.62;;;20.20;66.60;;;;;;2373066;56;21050;-75
2022/06/23 08:26:12;;;;;;;3.72;2.40;;;20.30;66.70;;;;;;2371144;56;21043;-75
2022/06/23 08:28:41;;;;;;;4.57;2.47;;;20.30;66.40;;;;;;2372544;56;21059;-75
2022/06/23 08:31:09;;;;;;;3.87;2.75;;;20.40;66.40;;;;;;2373568;56;21110;-75
2022/06/23 08:33:36;;;;;;;3.15;2.70;;;20.40;66.80;;;;;;2372968;56;21038;-75
2022/06/23 08:36:09;;;;;;;4.85;3.00;;;20.50;67.40;;;;;;2372987;56;21036;-75
2022/06/23 08:38:44;;;;;;;7.72;3.47;;;20.50;67.80;;;;;;2373596;56;21019;-76
2022/06/23 08:41:22;;;;;;;5.70;3.20;;;20.60;68.10;;;;;;2373338;56;21122;-75
2022/06/23 08:43:56;;;;;;;6.40;3.53;;;20.70;67.50;;;;;;2372883;56;21035;-76
2022/06/23 08:46:31;;;;;;;5.90;2.55;;;20.80;67.50;;;;;;2372783;56;21043;-76
2022/06/23 08:49:09;;;;;;;4.72;3.00;;;20.80;66.90;;;;;;2373575;56;21514;-76
2022/06/23 08:51:46;;;;;;;5.05;2.83;;;20.90;66.20;;;;;;2373018;56;21613;-75
2022/06/23 08:54:23;;;;;;;3.47;2.30;;;20.90;66.00;;;;;;2395192;52;21103;-75
2022/06/23 08:57:03;;;;;;;3.45;2.22;;;21.00;66.00;;;;;;2372776;56;22103;-75
2022/06/23 08:59:38;;;;;;;5.30;2.80;;;21.00;63.30;;;;;;2373295;56;21082;-76
2022/06/23 09:02:14;;;;;;;3.15;2.37;;;21.00;62.70;;;;;;2447419;52;21538;-75
2022/06/23 09:04:50;;;;;;;3.03;2.62;;;21.10;63.20;;;;;;2372587;56;21062;-76
2022/06/23 09:07:26;;;;;;;5.07;2.30;;;21.10;63.60;;;;;;2395903;52;21063;-76
2022/06/23 09:12:39;;;;;;;6.03;2.33;;;21.20;63.60;;;;;;2532694;52;22082;-75
2022/06/23 09:15:36;;;;;;;6.30;2.53;;;21.30;62.80;;;;;;2347313;57;21339;-77
2022/06/23 09:18:42;;;;;;;4.22;2.62;;;21.30;64.00;;;;;;2346796;55;21076;-76
2022/06/23 09:21:42;;;;;;;3.10;2.22;;;21.50;64.40;;;;;;2322427;54;21123;-75
2022/06/23 09:27:42;;;;;;;3.75;2.40;;;21.60;63.40;;;;;;2354228;57;22074;-76
2022/06/23 09:30:16;;;;;;;6.10;2.30;;;21.60;63.00;;;;;;2391721;52;21063;-76
2022/06/23 09:33:06;;;;;;;4.37;2.30;;;21.60;63.20;;;;;;2374149;56;21827;-76
2022/06/23 09:36:13;;;;;;;5.75;3.03;;;21.70;63.20;;;;;;2374246;56;21070;-76
2022/06/23 09:39:20;;;;;;;4.80;2.80;;;21.80;63.20;;;;;;2373970;56;21078;-76
2022/06/23 09:42:08;;;;;;;4.55;2.40;;;21.80;62.70;;;;;;2357939;56;21138;-76
2022/06/23 09:44:55;;;;;;;3.60;2.25;;;21.90;62.30;;;;;;2373914;56;21043;-75
2022/06/23 09:47:42;;;;;;;3.65;2.20;;;21.90;61.80;;;;;;2392364;52;21520;-76
2022/06/23 09:50:38;;;;;;;3.62;2.45;;;22.00;60.50;;;;;;2374260;56;21124;-76
2022/06/23 09:53:50;;;;;;;3.10;2.47;;;22.10;60.60;;;;;;2373578;56;21023;-75
2022/06/23 09:56:47;;;;;;;4.05;2.17;;;22.10;60.90;;;;;;2372803;56;21505;-75
2022/06/23 09:59:46;;;;;;;3.37;2.53;;;22.20;60.40;;;;;;2373590;52;21134;-75
2022/06/23 10:02:26;;;;;;;3.47;2.22;;;22.20;59.60;;;;;;2433329;52;21548;-75
2022/06/23 10:05:15;;;;;;;3.20;2.33;;;22.30;59.90;;;;;;2304171;58;21093;-75
2022/06/23 10:08:05;;;;;;;4.22;2.45;;;22.30;60.60;;;;;;2304110;58;21122;-75
2022/06/23 10:10:53;;;;;;;3.03;2.28;;;22.40;60.50;;;;;;2302312;58;21110;-75
2022/06/23 10:13:59;;;;;;;2.50;2.22;;;22.40;61.20;;;;;;2302444;58;21525;-75
2022/06/23 10:16:47;;;;;;;2.92;2.50;;;22.50;59.20;;;;;;2300612;58;21046;-76
2022/06/23 10:19:31;;;;;;;3.95;2.83;;;22.60;58.40;;;;;;2302689;58;21062;-74
2022/06/23 10:22:19;;;;;;;4.40;2.40;;;22.60;59.30;;;;;;2302479;58;21054;-74
2022/06/23 10:25:18;;;;;;;5.87;2.78;;;22.70;59.00;;;;;;2301997;58;21046;-75
2022/06/23 10:28:19;;;;;;;3.62;2.62;;;22.80;58.50;;;;;;2302073;58;21695;-74
2022/06/23 10:30:56;;;;;;;4.32;2.55;;;22.80;57.80;;;;;;2298490;58;21102;-75
2022/06/23 10:33:45;;;;;;;3.53;2.20;;;22.90;58.40;;;;;;2300775;58;21117;-75
2022/06/23 10:39:03;;;;;;;5.12;2.87;;;23.00;57.50;;;;;;2349594;57;22071;-76
2022/06/23 10:44:56;;;;;;;4.22;2.50;;;23.20;55.10;;;;;;2356316;57;22034;-77
2022/06/23 10:47:42;;;;;;;3.58;2.47;;;23.30;55.50;;;;;;2346440;57;21164;-75
2022/06/23 10:50:25;;;;;;;2.87;2.55;;;23.40;55.00;;;;;;2368419;56;21669;-76
2022/06/23 10:53:09;;;;;;;3.85;2.17;;;23.50;54.70;;;;;;2374394;56;21043;-76
2022/06/23 10:56:24;;;;;;;5.50;2.50;;;23.50;53.70;;;;;;2628641;52;21627;-76
2022/06/23 11:02:04;;;;;;;4.22;2.10;;;23.60;52.50;;;;;;2355964;57;22074;-76
2022/06/23 11:05:22;;;;;;;3.00;2.40;;;23.80;53.00;;;;;;2347879;57;21045;-77
2022/06/23 11:08:05;;;;;;;3.20;2.45;;;23.90;52.70;;;;;;2326495;57;21092;-77
2022/06/23 11:11:00;;;;;;;3.30;2.23;;;24.00;52.70;;;;;;2373233;56;21557;-75
2022/06/23 11:13:36;;;;;;;4.22;2.47;;;24.20;53.10;;;;;;2375127;56;21521;-77
2022/06/23 11:16:11;;;;;;;2.92;2.35;;;24.40;51.50;;;;;;2374857;56;21063;-77
2022/06/23 11:18:52;;;;;;;22.58;2.97;;;24.60;50.30;;;;;;2375181;56;21109;-76
2022/06/23 11:21:34;;;;;;;4.68;2.35;;;24.80;50.70;;;;;;2374881;56;22144;-77
2022/06/23 11:24:06;;;;;;;3.35;2.10;;;24.90;50.10;;;;;;2628444;52;21051;-76
2022/06/23 11:26:47;;;;;;;3.65;2.00;;;25.10;49.00;;;;;;2374798;56;21043;-75
2022/06/23 11:29:45;;;;;;;2.40;2.03;;;25.30;48.50;;;;;;2628810;52;21054;-77
2022/06/23 11:32:23;;;;;;;4.93;2.40;;;25.50;49.50;;;;;;2375060;56;21616;-77
2022/06/23 11:35:05;;;;;;;3.90;2.22;;;25.70;48.20;;;;;;2375060;56;21118;-77
2022/06/23 11:37:56;;;;;;;6.07;2.40;;;25.80;47.90;;;;;;2374686;56;21118;-77
2022/06/23 11:40:53;;;;;;;3.95;2.30;;;26.00;46.90;;;;;;2375434;56;21125;-77
2022/06/23 11:43:23;;;;;;;2.85;2.10;;;26.20;46.00;;;;;;2374835;56;21027;-77
2022/06/23 11:46:04;;;;;;;3.78;2.20;;;26.30;46.20;;;;;;2374519;56;21043;-77
2022/06/23 11:49:12;;;;;;;6.68;2.55;;;26.50;45.40;;;;;;2373107;56;22579;-74
2022/06/23 11:51:53;;;;;;;5.82;2.28;;;26.70;44.50;;;;;;2352711;56;21027;-76
2022/06/23 11:54:37;;;;;;;5.18;2.72;;;26.80;43.20;;;;;;2372808;56;21055;-77
2022/06/23 11:57:21;;;;;;;3.55;2.15;;;27.00;44.20;;;;;;2373512;56;21108;-77
2022/06/23 11:59:57;;;;;;;4.97;2.53;;;27.20;44.20;;;;;;2373980;56;21094;-77
2022/06/23 12:02:25;;;;;;;4.15;2.42;;;27.40;44.10;;;;;;2372068;56;21221;-77
2022/06/23 12:05:12;;;;;;;3.30;2.10;;;27.50;43.60;;;;;;2372287;56;21548;-76
2022/06/23 12:08:19;;;;;;;5.30;1.98;;;27.70;42.80;;;;;;2371782;56;21588;-77
2022/06/23 12:10:47;;;;;;;3.70;2.03;;;27.80;42.00;;;;;;2303006;56;21046;-77
2022/06/23 12:13:14;;;;;;;5.78;1.90;;;28.00;41.40;;;;;;2371785;56;21050;-76
2022/06/23 12:15:45;;;;;;;4.37;2.20;;;28.10;40.80;;;;;;2369595;56;21830;-77
2022/06/23 12:18:18;;;;;;;2.92;2.00;;;28.20;41.00;;;;;;2371407;56;21520;-77
2022/06/23 12:20:52;;;;;;;3.00;2.12;;;28.30;41.00;;;;;;2371776;56;21051;-77
2022/06/23 12:26:12;;;;;;;2.83;2.20;;;28.60;40.30;;;;;;2566722;54;22846;-77
2022/06/23 12:28:45;;;;;;;2.30;2.08;;;28.70;40.20;;;;;;2318196;57;21052;-76
2022/06/23 12:31:22;;;;;;;3.70;2.20;;;28.80;39.60;;;;;;2342842;57;21065;-76
2022/06/23 12:34:00;;;;;;;3.05;1.90;;;28.90;38.70;;;;;;2343361;57;21122;-77
2022/06/23 12:36:34;;;;;;;2.75;2.10;;;29.00;39.50;;;;;;2343751;57;21037;-77
2022/06/23 12:39:07;;;;;;;4.47;1.98;;;29.10;39.90;;;;;;2344354;57;21177;-77
2022/06/23 12:41:41;;;;;;;3.97;1.77;;;29.20;39.50;;;;;;2344459;57;21623;-77
2022/06/23 12:44:19;;;;;;;2.37;1.70;;;29.20;38.30;;;;;;2344829;57;21129;-77
2022/06/23 12:46:57;;;;;;;20.20;2.62;;;29.40;36.90;;;;;;2342900;57;22668;-76
2022/06/23 12:49:44;;;;;;;3.25;2.15;;;29.40;35.70;;;;;;2340533;57;21053;-77
2022/06/23 12:52:24;;;;;;;2.83;1.98;;;29.50;37.40;;;;;;2341869;57;21065;-76
2022/06/23 12:55:25;;;;;;;3.33;1.90;;;29.60;36.50;;;;;;2345842;57;21513;-77
2022/06/23 12:58:33;;;;;;;4.12;1.85;;;29.70;36.40;;;;;;2339858;57;21223;-77
2022/06/23 13:01:09;;;;;;;2.15;1.77;;;29.80;36.80;;;;;;2496602;53;21113;-75
2022/06/23 13:03:46;;;;;;;6.87;2.17;;;29.80;36.30;;;;;;2346306;57;21049;-77
2022/06/23 13:06:24;;;;;;;3.92;1.80;;;29.90;36.30;;;;;;2345526;57;22188;-77
2022/06/23 13:09:01;;;;;;;2.58;1.87;;;30.00;36.60;;;;;;2346112;57;21046;-77
2022/06/23 13:11:33;;;;;;;12.50;2.35;;;30.00;36.60;;;;;;2343749;57;21135;-75
2022/06/23 13:14:06;;;;;;;3.83;1.65;;;30.10;36.60;;;;;;2345728;57;21046;-76
2022/06/23 13:16:42;;;;;;;;;;;30.20;35.10;;;;;;2348673;57;21073;-76
2022/06/23 13:19:16;;;;;;;2.12;1.58;;;30.10;35.70;;;;;;2344917;57;20082;-76
2022/06/23 13:21:44;;;;;;;5.40;1.70;;;30.30;34.70;;;;;;2345936;57;21116;-76
2022/06/23 13:24:18;;;;;;;2.35;1.40;;;30.30;34.60;;;;;;2591769;53;21147;-77
2022/06/23 13:26:47;;;;;;;;;;;30.40;33.50;;;;;;2348611;57;21045;-76
2022/06/23 13:29:19;;;;;;;2.60;1.17;;;30.30;35.20;;;;;;2345393;57;20365;-76
2022/06/23 13:31:52;;;;;;;2.10;1.50;;;30.50;34.10;;;;;;2345046;57;21045;-77
2022/06/23 13:34:27;;;;;;;2.33;1.67;;;30.60;33.20;;;;;;2345338;57;21571;-75
2022/06/23 13:37:00;;;;;;;2.75;1.50;;;30.60;34.60;;;;;;2343914;57;21061;-75
2022/06/23 13:39:35;;;;;;;2.92;1.73;;;30.70;33.50;;;;;;2344229;57;21105;-77
2022/06/23 13:42:09;;;;;;;1.87;1.70;;;30.80;33.30;;;;;;2344197;57;21101;-76
2022/06/23 13:44:43;;;;;;;4.35;1.52;;;30.90;34.00;;;;;;2344149;57;21058;-76
2022/06/23 13:47:18;;;;;;;2.50;1.67;;;30.90;33.00;;;;;;2343345;57;21324;-78
2022/06/23 13:49:54;;;;;;;3.62;1.98;;;30.90;33.00;;;;;;2591644;53;21536;-79
2022/06/23 13:52:30;;;;;;;3.50;1.67;;;31.00;30.80;;;;;;2592013;53;21556;-79
2022/06/23 13:55:05;;;;;;;2.20;1.33;;;31.00;31.80;;;;;;2344576;57;21053;-78
2022/06/23 13:57:40;;;;;;;2.03;1.83;;;31.10;32.20;;;;;;2345176;57;21116;-78
2022/06/23 14:00:14;;;;;;;2.15;1.48;;;31.10;32.50;;;;;;2591709;53;21046;-79
2022/06/23 14:02:48;;;;;;;3.08;1.80;;;31.20;32.10;;;;;;2344419;57;21513;-80
2022/06/23 14:05:24;;;;;;;2.28;2.03;;;31.10;31.20;;;;;;2343238;57;21070;-80
2022/06/23 14:07:58;;;;;;;2.12;1.30;;;31.20;31.60;;;;;;2345225;57;21120;-80
2022/06/23 14:10:36;;;;;;;2.55;1.67;;;31.10;32.10;;;;;;2345641;57;21571;-80
2022/06/23 14:13:14;;;;;;;2.47;1.67;;;31.10;32.30;;;;;;2346125;57;21616;-79
2022/06/23 14:15:48;;;;;;;1.58;1.45;;;31.20;31.60;;;;;;2345635;57;21070;-80
2022/06/23 14:18:23;;;;;;;2.67;1.50;;;31.20;31.30;;;;;;2592601;53;21073;-79
2022/06/23 14:20:57;;;;;;;3.53;1.80;;;31.30;32.40;;;;;;2345858;57;21097;-79